sensor_id;sensor_type;location;lat;lon;timestamp;pressure;altitude;pressure_sealevel;temperature;humidity
75247;BME280;63844;50.042;19.224;2022-10-19T00:01:21;99798.16;;;12.46;86.55
75247;BME280;63844;50.042;19.224;2022-10-19T00:03:50;99799.50;;;12.50;86.85
75247;BME280;63844;50.042;19.224;2022-10-19T00:06:30;99801.87;;;12.52;86.70
75247;BME280;63844;50.042;19.224;2022-10-19T00:08:59;99799.56;;;12.52;86.51
75247;BME280;63844;50.042;19.224;2022-10-19T00:11:26;99798.20;;;12.51;84.96
75247;BME280;63844;50.042;19.224;2022-10-19T00:13:54;99798.17;;;12.52;86.80
75247;BME280;63844;50.042;19.224;2022-10-19T00:16:22;99792.29;;;12.52;87.31
75247;BME280;63844;50.042;19.224;2022-10-19T00:18:49;99793.91;;;12.52;87.83
75247;BME280;63844;50.042;19.224;2022-10-19T00:21:17;99793.72;;;12.52;88.34
75247;BME280;63844;50.042;19.224;2022-10-19T00:23:44;99792.66;;;12.52;88.68
75247;BME280;63844;50.042;19.224;2022-10-19T00:26:11;99789.29;;;12.55;87.86
75247;BME280;63844;50.042;19.224;2022-10-19T00:28:38;99795.58;;;12.57;88.34
75247;BME280;63844;50.042;19.224;2022-10-19T00:31:08;99794.09;;;12.54;88.56
75247;BME280;63844;50.042;19.224;2022-10-19T00:33:35;99791.00;;;12.53;89.02
75247;BME280;63844;50.042;19.224;2022-10-19T00:36:01;99789.45;;;12.55;88.65
75247;BME280;63844;50.042;19.224;2022-10-19T00:38:28;99785.48;;;12.59;87.06
75247;BME280;63844;50.042;19.224;2022-10-19T00:40:54;99789.32;;;12.57;88.70
75247;BME280;63844;50.042;19.224;2022-10-19T00:43:24;99791.48;;;12.59;88.33
75247;BME280;63844;50.042;19.224;2022-10-19T00:45:50;99788.82;;;12.59;88.33
75247;BME280;63844;50.042;19.224;2022-10-19T00:48:25;99784.04;;;12.62;88.96
75247;BME280;63844;50.042;19.224;2022-10-19T00:50:54;99781.29;;;12.61;87.04
75247;BME280;63844;50.042;19.224;2022-10-19T00:53:22;99778.59;;;12.61;87.98
75247;BME280;63844;50.042;19.224;2022-10-19T00:55:51;99776.35;;;12.60;87.25
75247;BME280;63844;50.042;19.224;2022-10-19T00:58:17;99773.70;;;12.60;87.77
75247;BME280;63844;50.042;19.224;2022-10-19T01:00:44;99774.63;;;12.62;87.91
75247;BME280;63844;50.042;19.224;2022-10-19T01:03:11;99773.02;;;12.62;87.96
75247;BME280;63844;50.042;19.224;2022-10-19T01:05:38;99770.15;;;12.63;88.49
75247;BME280;63844;50.042;19.224;2022-10-19T01:08:07;99766.55;;;12.63;88.62
75247;BME280;63844;50.042;19.224;2022-10-19T01:10:47;99763.36;;;12.66;88.50
75247;BME280;63844;50.042;19.224;2022-10-19T01:16:35;99762.89;;;12.68;87.57
75247;BME280;63844;50.042;19.224;2022-10-19T01:27:35;99754.74;;;12.59;87.54
75247;BME280;63844;50.042;19.224;2022-10-19T01:33:05;99750.73;;;12.61;88.07
75247;BME280;63844;50.042;19.224;2022-10-19T01:35:44;99746.22;;;12.56;88.92
75247;BME280;63844;50.042;19.224;2022-10-19T01:38:23;99747.70;;;12.55;88.52
75247;BME280;63844;50.042;19.224;2022-10-19T01:41:01;99745.52;;;12.53;88.87
75247;BME280;63844;50.042;19.224;2022-10-19T01:43:40;99742.36;;;12.55;88.53
75247;BME280;63844;50.042;19.224;2022-10-19T01:46:38;99741.91;;;12.54;88.45
75247;BME280;63844;50.042;19.224;2022-10-19T01:49:40;99741.05;;;12.56;88.13
75247;BME280;63844;50.042;19.224;2022-10-19T01:52:10;99741.08;;;12.53;88.58
75247;BME280;63844;50.042;19.224;2022-10-19T01:54:43;99742.42;;;12.49;89.09
75247;BME280;63844;50.042;19.224;2022-10-19T01:57:13;99738.02;;;12.45;89.44
75247;BME280;63844;50.042;19.224;2022-10-19T01:59:42;99733.89;;;12.41;89.17
75247;BME280;63844;50.042;19.224;2022-10-19T02:02:10;99738.24;;;12.45;88.51
75247;BME280;63844;50.042;19.224;2022-10-19T02:04:39;99740.36;;;12.42;89.39
75247;BME280;63844;50.042;19.224;2022-10-19T02:07:07;99739.40;;;12.43;88.30
75247;BME280;63844;50.042;19.224;2022-10-19T02:09:35;99743.13;;;12.43;88.87
75247;BME280;63844;50.042;19.224;2022-10-19T02:12:07;99742.83;;;12.42;88.46
75247;BME280;63844;50.042;19.224;2022-10-19T02:15:00;99746.48;;;12.41;88.86
75247;BME280;63844;50.042;19.224;2022-10-19T02:17:34;99739.77;;;12.34;89.41
75247;BME280;63844;50.042;19.224;2022-10-19T02:20:03;99737.30;;;12.31;89.75
75247;BME280;63844;50.042;19.224;2022-10-19T02:22:30;99734.35;;;12.35;88.89
75247;BME280;63844;50.042;19.224;2022-10-19T02:24:57;99735.48;;;12.34;89.26
75247;BME280;63844;50.042;19.224;2022-10-19T02:27:23;99736.03;;;12.31;89.79
75247;BME280;63844;50.042;19.224;2022-10-19T02:29:50;99734.34;;;12.30;89.73
75247;BME280;63844;50.042;19.224;2022-10-19T02:32:35;99733.90;;;12.29;89.18
75247;BME280;63844;50.042;19.224;2022-10-19T02:35:02;99732.71;;;12.22;89.94
75247;BME280;63844;50.042;19.224;2022-10-19T02:37:29;99727.18;;;12.20;89.98
75247;BME280;63844;50.042;19.224;2022-10-19T02:39:56;99722.56;;;12.22;89.35
75247;BME280;63844;50.042;19.224;2022-10-19T02:42:54;99719.94;;;12.25;89.27
75247;BME280;63844;50.042;19.224;2022-10-19T02:45:38;99720.32;;;12.21;90.22
75247;BME280;63844;50.042;19.224;2022-10-19T02:48:10;99716.96;;;12.18;89.74
75247;BME280;63844;50.042;19.224;2022-10-19T02:50:42;99716.21;;;12.16;90.03
75247;BME280;63844;50.042;19.224;2022-10-19T02:53:09;99719.31;;;12.12;90.58
75247;BME280;63844;50.042;19.224;2022-10-19T02:55:35;99715.38;;;12.09;90.96
75247;BME280;63844;50.042;19.224;2022-10-19T02:58:01;99717.05;;;12.14;90.28
75247;BME280;63844;50.042;19.224;2022-10-19T03:00:28;99721.45;;;12.14;89.96
75247;BME280;63844;50.042;19.224;2022-10-19T03:02:54;99723.80;;;12.17;89.81
75247;BME280;63844;50.042;19.224;2022-10-19T03:05:21;99725.08;;;12.16;89.97
75247;BME280;63844;50.042;19.224;2022-10-19T03:07:47;99720.45;;;12.13;90.51
75247;BME280;63844;50.042;19.224;2022-10-19T03:10:14;99721.61;;;12.18;90.12
75247;BME280;63844;50.042;19.224;2022-10-19T03:12:40;99723.11;;;12.19;90.21
75247;BME280;63844;50.042;19.224;2022-10-19T03:15:08;99723.81;;;12.22;89.68
75247;BME280;63844;50.042;19.224;2022-10-19T03:17:35;99720.05;;;12.23;89.65
75247;BME280;63844;50.042;19.224;2022-10-19T03:20:02;99722.22;;;12.22;89.36
75247;BME280;63844;50.042;19.224;2022-10-19T03:22:29;99732.85;;;12.20;89.81
75247;BME280;63844;50.042;19.224;2022-10-19T03:24:55;99726.48;;;12.19;89.64
75247;BME280;63844;50.042;19.224;2022-10-19T03:27:22;99726.21;;;12.21;89.63
75247;BME280;63844;50.042;19.224;2022-10-19T03:29:48;99727.52;;;12.20;89.65
75247;BME280;63844;50.042;19.224;2022-10-19T03:32:14;99723.95;;;12.20;89.50
75247;BME280;63844;50.042;19.224;2022-10-19T03:34:41;99727.36;;;12.16;89.20
75247;BME280;63844;50.042;19.224;2022-10-19T03:37:07;99720.70;;;12.12;89.35
75247;BME280;63844;50.042;19.224;2022-10-19T03:39:34;99714.73;;;12.08;89.10
75247;BME280;63844;50.042;19.224;2022-10-19T03:42:00;99715.02;;;12.03;89.60
75247;BME280;63844;50.042;19.224;2022-10-19T03:44:27;99718.85;;;12.02;89.32
75247;BME280;63844;50.042;19.224;2022-10-19T03:46:53;99717.93;;;11.96;89.87
75247;BME280;63844;50.042;19.224;2022-10-19T03:49:19;99717.72;;;11.95;89.38
75247;BME280;63844;50.042;19.224;2022-10-19T03:51:46;99715.20;;;11.95;89.33
75247;BME280;63844;50.042;19.224;2022-10-19T03:54:14;99717.60;;;11.93;89.39
75247;BME280;63844;50.042;19.224;2022-10-19T03:56:41;99711.59;;;11.89;89.99
75247;BME280;63844;50.042;19.224;2022-10-19T03:59:11;99712.62;;;11.90;89.87
75247;BME280;63844;50.042;19.224;2022-10-19T04:01:41;99715.17;;;11.89;90.19
75247;BME280;63844;50.042;19.224;2022-10-19T04:04:13;99713.91;;;11.89;90.27
75247;BME280;63844;50.042;19.224;2022-10-19T04:06:41;99714.05;;;11.90;90.25
75247;BME280;63844;50.042;19.224;2022-10-19T04:09:12;99714.73;;;11.90;90.08
75247;BME280;63844;50.042;19.224;2022-10-19T04:11:40;99713.23;;;11.86;90.16
75247;BME280;63844;50.042;19.224;2022-10-19T04:14:07;99712.00;;;11.82;90.59
75247;BME280;63844;50.042;19.224;2022-10-19T04:16:35;99710.43;;;11.81;90.29
75247;BME280;63844;50.042;19.224;2022-10-19T04:19:02;99713.45;;;11.76;90.54
75247;BME280;63844;50.042;19.224;2022-10-19T04:21:36;99718.19;;;11.77;90.43
75247;BME280;63844;50.042;19.224;2022-10-19T04:24:06;99719.65;;;11.76;90.06
75247;BME280;63844;50.042;19.224;2022-10-19T04:26:36;99716.77;;;11.74;89.98
75247;BME280;63844;50.042;19.224;2022-10-19T04:29:03;99715.53;;;11.74;89.64
75247;BME280;63844;50.042;19.224;2022-10-19T04:31:29;99716.42;;;11.74;89.42
75247;BME280;63844;50.042;19.224;2022-10-19T04:33:56;99718.14;;;11.68;89.38
75247;BME280;63844;50.042;19.224;2022-10-19T04:36:22;99718.52;;;11.65;89.17
75247;BME280;63844;50.042;19.224;2022-10-19T04:38:49;99713.52;;;11.63;89.10
75247;BME280;63844;50.042;19.224;2022-10-19T04:41:17;99710.08;;;11.55;89.23
75247;BME280;63844;50.042;19.224;2022-10-19T04:43:44;99711.52;;;11.48;88.99
75247;BME280;63844;50.042;19.224;2022-10-19T04:46:14;99711.13;;;11.46;88.73
75247;BME280;63844;50.042;19.224;2022-10-19T04:48:42;99710.77;;;11.42;88.57
75247;BME280;63844;50.042;19.224;2022-10-19T04:51:09;99706.66;;;11.40;88.47
75247;BME280;63844;50.042;19.224;2022-10-19T04:53:37;99702.46;;;11.36;88.38
75247;BME280;63844;50.042;19.224;2022-10-19T04:56:05;99702.73;;;11.35;88.33
75247;BME280;63844;50.042;19.224;2022-10-19T04:58:32;99706.84;;;11.31;88.13
75247;BME280;63844;50.042;19.224;2022-10-19T05:01:05;99704.05;;;11.24;88.65
75247;BME280;63844;50.042;19.224;2022-10-19T05:03:31;99706.34;;;11.21;88.75
75247;BME280;63844;50.042;19.224;2022-10-19T05:05:58;99706.86;;;11.18;89.09
75247;BME280;63844;50.042;19.224;2022-10-19T05:08:24;99711.89;;;11.17;88.81
75247;BME280;63844;50.042;19.224;2022-10-19T05:10:51;99711.77;;;11.13;88.84
75247;BME280;63844;50.042;19.224;2022-10-19T05:13:17;99711.11;;;11.09;88.44
75247;BME280;63844;50.042;19.224;2022-10-19T05:15:54;99711.07;;;11.03;88.59
75247;BME280;63844;50.042;19.224;2022-10-19T05:18:20;99715.23;;;10.98;88.48
75247;BME280;63844;50.042;19.224;2022-10-19T05:20:47;99714.79;;;10.94;88.68
75247;BME280;63844;50.042;19.224;2022-10-19T05:23:13;99713.36;;;10.91;88.84
75247;BME280;63844;50.042;19.224;2022-10-19T05:25:39;99716.15;;;10.92;88.46
75247;BME280;63844;50.042;19.224;2022-10-19T05:28:05;99712.89;;;10.90;88.66
75247;BME280;63844;50.042;19.224;2022-10-19T05:30:32;99711.79;;;10.84;88.76
75247;BME280;63844;50.042;19.224;2022-10-19T05:32:58;99709.48;;;10.75;89.13
75247;BME280;63844;50.042;19.224;2022-10-19T05:35:25;99704.55;;;10.71;89.15
75247;BME280;63844;50.042;19.224;2022-10-19T05:37:54;99714.00;;;10.70;89.15
75247;BME280;63844;50.042;19.224;2022-10-19T05:40:21;99717.48;;;10.71;89.04
75247;BME280;63844;50.042;19.224;2022-10-19T05:42:47;99716.61;;;10.71;89.03
75247;BME280;63844;50.042;19.224;2022-10-19T05:45:13;99714.17;;;10.70;89.21
75247;BME280;63844;50.042;19.224;2022-10-19T05:47:40;99722.34;;;10.69;88.83
75247;BME280;63844;50.042;19.224;2022-10-19T05:50:06;99718.18;;;10.65;89.11
75247;BME280;63844;50.042;19.224;2022-10-19T05:52:33;99719.73;;;10.62;89.16
75247;BME280;63844;50.042;19.224;2022-10-19T05:54:59;99716.33;;;10.63;88.98
75247;BME280;63844;50.042;19.224;2022-10-19T05:57:26;99718.27;;;10.66;88.59
75247;BME280;63844;50.042;19.224;2022-10-19T05:59:52;99720.83;;;10.68;88.70
75247;BME280;63844;50.042;19.224;2022-10-19T06:02:21;99721.35;;;10.68;88.96
75247;BME280;63844;50.042;19.224;2022-10-19T06:04:48;99726.34;;;10.68;88.93
75247;BME280;63844;50.042;19.224;2022-10-19T06:07:14;99724.98;;;10.67;89.14
75247;BME280;63844;50.042;19.224;2022-10-19T06:09:41;99730.55;;;10.62;89.32
75247;BME280;63844;50.042;19.224;2022-10-19T06:12:07;99739.15;;;10.63;89.17
75247;BME280;63844;50.042;19.224;2022-10-19T06:14:33;99737.54;;;10.64;89.42
75247;BME280;63844;50.042;19.224;2022-10-19T06:17:00;99733.39;;;10.65;89.64
75247;BME280;63844;50.042;19.224;2022-10-19T06:19:27;99734.88;;;10.73;89.26
75247;BME280;63844;50.042;19.224;2022-10-19T06:21:53;99731.54;;;10.83;89.23
75247;BME280;63844;50.042;19.224;2022-10-19T06:24:19;99734.97;;;10.88;89.55
75247;BME280;63844;50.042;19.224;2022-10-19T06:26:46;99730.98;;;10.92;89.48
75247;BME280;63844;50.042;19.224;2022-10-19T06:29:12;99731.48;;;10.93;89.57
75247;BME280;63844;50.042;19.224;2022-10-19T06:31:38;99736.23;;;11.00;89.38
75247;BME280;63844;50.042;19.224;2022-10-19T06:34:05;99734.31;;;11.09;89.05
75247;BME280;63844;50.042;19.224;2022-10-19T06:36:32;99730.27;;;11.12;89.38
75247;BME280;63844;50.042;19.224;2022-10-19T06:38:58;99727.23;;;11.18;89.00
75247;BME280;63844;50.042;19.224;2022-10-19T06:41:28;99732.00;;;11.21;88.91
75247;BME280;63844;50.042;19.224;2022-10-19T06:43:55;99736.38;;;11.26;88.58
75247;BME280;63844;50.042;19.224;2022-10-19T06:46:23;99736.67;;;11.36;88.11
75247;BME280;63844;50.042;19.224;2022-10-19T06:48:58;99746.61;;;11.42;88.06
75247;BME280;63844;50.042;19.224;2022-10-19T06:51:27;99751.23;;;11.41;88.00
75247;BME280;63844;50.042;19.224;2022-10-19T06:53:54;99756.70;;;11.42;88.17
75247;BME280;63844;50.042;19.224;2022-10-19T06:56:22;99760.85;;;11.41;88.36
75247;BME280;63844;50.042;19.224;2022-10-19T06:58:49;99766.34;;;11.41;88.29
75247;BME280;63844;50.042;19.224;2022-10-19T07:01:16;99767.17;;;11.42;88.31
75247;BME280;63844;50.042;19.224;2022-10-19T07:03:42;99767.23;;;11.41;88.16
75247;BME280;63844;50.042;19.224;2022-10-19T07:06:10;99770.68;;;11.40;88.15
75247;BME280;63844;50.042;19.224;2022-10-19T07:08:38;99767.20;;;11.38;88.25
75247;BME280;63844;50.042;19.224;2022-10-19T07:11:07;99777.69;;;11.38;88.07
75247;BME280;63844;50.042;19.224;2022-10-19T07:13:35;99775.62;;;11.34;88.31
75247;BME280;63844;50.042;19.224;2022-10-19T07:16:07;99782.69;;;11.31;88.27
75247;BME280;63844;50.042;19.224;2022-10-19T07:18:38;99784.56;;;11.26;88.38
75247;BME280;63844;50.042;19.224;2022-10-19T07:21:11;99788.45;;;11.29;88.26
75247;BME280;63844;50.042;19.224;2022-10-19T07:23:40;99794.84;;;11.33;87.84
75247;BME280;63844;50.042;19.224;2022-10-19T07:26:12;99797.27;;;11.36;87.75
75247;BME280;63844;50.042;19.224;2022-10-19T07:28:40;99796.12;;;11.41;87.80
75247;BME280;63844;50.042;19.224;2022-10-19T07:31:10;99794.96;;;11.49;87.68
75247;BME280;63844;50.042;19.224;2022-10-19T07:33:36;99797.63;;;11.52;87.23
75247;BME280;63844;50.042;19.224;2022-10-19T07:36:06;99797.23;;;11.50;87.10
75247;BME280;63844;50.042;19.224;2022-10-19T07:38:34;99800.88;;;11.45;86.60
75247;BME280;63844;50.042;19.224;2022-10-19T07:41:09;99798.15;;;11.43;87.03
75247;BME280;63844;50.042;19.224;2022-10-19T07:43:38;99797.57;;;11.47;86.90
75247;BME280;63844;50.042;19.224;2022-10-19T07:46:07;99795.72;;;11.52;86.73
75247;BME280;63844;50.042;19.224;2022-10-19T07:48:34;99794.04;;;11.50;86.51
75247;BME280;63844;50.042;19.224;2022-10-19T07:51:03;99785.65;;;11.51;86.39
75247;BME280;63844;50.042;19.224;2022-10-19T07:53:29;99787.42;;;11.57;86.31
75247;BME280;63844;50.042;19.224;2022-10-19T07:56:03;99787.60;;;11.63;85.84
75247;BME280;63844;50.042;19.224;2022-10-19T07:58:29;99782.92;;;11.73;86.20
75247;BME280;63844;50.042;19.224;2022-10-19T08:01:01;99780.20;;;11.80;85.22
75247;BME280;63844;50.042;19.224;2022-10-19T08:03:28;99782.54;;;11.86;84.90
75247;BME280;63844;50.042;19.224;2022-10-19T08:05:59;99786.24;;;11.93;84.54
75247;BME280;63844;50.042;19.224;2022-10-19T08:08:26;99785.83;;;12.00;84.28
75247;BME280;63844;50.042;19.224;2022-10-19T08:10:53;99786.62;;;12.11;83.42
75247;BME280;63844;50.042;19.224;2022-10-19T08:13:19;99786.98;;;12.26;83.25
75247;BME280;63844;50.042;19.224;2022-10-19T08:15:45;99793.16;;;12.32;83.01
75247;BME280;63844;50.042;19.224;2022-10-19T08:18:12;99795.41;;;12.27;82.00
75247;BME280;63844;50.042;19.224;2022-10-19T08:20:42;99792.91;;;12.27;81.76
75247;BME280;63844;50.042;19.224;2022-10-19T08:23:09;99788.29;;;12.30;82.04
75247;BME280;63844;50.042;19.224;2022-10-19T08:25:35;99785.21;;;12.34;81.73
75247;BME280;63844;50.042;19.224;2022-10-19T08:28:02;99784.77;;;12.33;81.43
75247;BME280;63844;50.042;19.224;2022-10-19T08:30:29;99774.53;;;12.35;81.44
75247;BME280;63844;50.042;19.224;2022-10-19T08:32:55;99770.10;;;12.26;81.02
75247;BME280;63844;50.042;19.224;2022-10-19T08:35:21;99775.20;;;12.21;80.51
75247;BME280;63844;50.042;19.224;2022-10-19T08:37:47;99782.46;;;12.09;78.55
75247;BME280;63844;50.042;19.224;2022-10-19T08:40:25;99773.84;;;11.96;78.87
75247;BME280;63844;50.042;19.224;2022-10-19T08:48:23;99785.58;;;11.74;77.81
75247;BME280;63844;50.042;19.224;2022-10-19T08:50:50;99802.19;;;11.65;77.05
75247;BME280;63844;50.042;19.224;2022-10-19T08:59:03;99793.66;;;11.66;77.34
75247;BME280;63844;50.042;19.224;2022-10-19T09:07:19;99792.14;;;11.77;74.76
75247;BME280;63844;50.042;19.224;2022-10-19T09:12:55;99788.05;;;12.05;71.62
75247;BME280;63844;50.042;19.224;2022-10-19T09:15:24;99787.27;;;12.12;71.40
75247;BME280;63844;50.042;19.224;2022-10-19T09:17:51;99801.78;;;12.06;68.21
75247;BME280;63844;50.042;19.224;2022-10-19T09:20:28;99794.62;;;12.08;69.04
75247;BME280;63844;50.042;19.224;2022-10-19T09:23:25;99795.21;;;12.01;67.79
75247;BME280;63844;50.042;19.224;2022-10-19T09:25:55;99796.87;;;11.96;66.04
75247;BME280;63844;50.042;19.224;2022-10-19T09:28:43;99789.68;;;11.95;65.07
75247;BME280;63844;50.042;19.224;2022-10-19T09:31:14;99790.45;;;11.91;66.10
75247;BME280;63844;50.042;19.224;2022-10-19T09:33:49;99790.73;;;11.89;65.03
75247;BME280;63844;50.042;19.224;2022-10-19T09:36:17;99791.27;;;11.86;65.25
75247;BME280;63844;50.042;19.224;2022-10-19T09:38:43;99787.68;;;11.83;65.60
75247;BME280;63844;50.042;19.224;2022-10-19T09:41:21;99794.39;;;11.80;65.69
75247;BME280;63844;50.042;19.224;2022-10-19T09:43:53;99793.27;;;11.78;66.40
75247;BME280;63844;50.042;19.224;2022-10-19T09:46:45;99795.33;;;11.74;66.55
75247;BME280;63844;50.042;19.224;2022-10-19T09:52:03;99814.49;;;11.74;67.04
75247;BME280;63844;50.042;19.224;2022-10-19T09:54:34;99812.18;;;11.77;66.93
75247;BME280;63844;50.042;19.224;2022-10-19T09:57:02;99821.48;;;11.78;66.58
75247;BME280;63844;50.042;19.224;2022-10-19T09:59:33;99809.12;;;11.83;66.30
75247;BME280;63844;50.042;19.224;2022-10-19T10:02:13;99808.31;;;11.91;65.31
75247;BME280;63844;50.042;19.224;2022-10-19T10:04:40;99816.39;;;11.93;64.73
75247;BME280;63844;50.042;19.224;2022-10-19T10:07:15;99810.54;;;11.94;64.12
75247;BME280;63844;50.042;19.224;2022-10-19T10:09:43;99811.45;;;11.99;64.36
75247;BME280;63844;50.042;19.224;2022-10-19T10:12:13;99811.68;;;12.01;63.95
75247;BME280;63844;50.042;19.224;2022-10-19T10:14:42;99808.23;;;12.06;64.12
75247;BME280;63844;50.042;19.224;2022-10-19T10:17:27;99808.57;;;12.03;63.77
75247;BME280;63844;50.042;19.224;2022-10-19T10:22:28;99800.79;;;12.17;61.89
75247;BME280;63844;50.042;19.224;2022-10-19T10:24:55;99799.94;;;12.17;61.15
75247;BME280;63844;50.042;19.224;2022-10-19T10:27:35;99796.65;;;12.18;62.34
75247;BME280;63844;50.042;19.224;2022-10-19T10:30:06;99804.60;;;12.16;60.63
75247;BME280;63844;50.042;19.224;2022-10-19T10:32:36;99808.78;;;12.11;57.67
75247;BME280;63844;50.042;19.224;2022-10-19T10:35:16;99802.45;;;12.01;57.37
75247;BME280;63844;50.042;19.224;2022-10-19T10:37:44;99804.05;;;11.98;57.52
75247;BME280;63844;50.042;19.224;2022-10-19T10:40:22;99802.99;;;11.92;57.83
75247;BME280;63844;50.042;19.224;2022-10-19T10:42:50;99801.40;;;11.88;59.04
75247;BME280;63844;50.042;19.224;2022-10-19T10:45:23;99803.16;;;11.86;59.40
75247;BME280;63844;50.042;19.224;2022-10-19T10:47:51;99804.98;;;11.85;59.78
75247;BME280;63844;50.042;19.224;2022-10-19T10:50:30;99803.06;;;11.81;59.29
75247;BME280;63844;50.042;19.224;2022-10-19T10:53:01;99807.21;;;11.83;59.43
75247;BME280;63844;50.042;19.224;2022-10-19T10:55:30;99797.30;;;11.82;59.58
75247;BME280;63844;50.042;19.224;2022-10-19T10:58:20;99793.98;;;11.88;59.64
75247;BME280;63844;50.042;19.224;2022-10-19T11:00:51;99793.77;;;11.89;59.44
75247;BME280;63844;50.042;19.224;2022-10-19T11:03:24;99799.91;;;11.87;59.68
75247;BME280;63844;50.042;19.224;2022-10-19T11:05:57;99802.34;;;11.84;59.76
75247;BME280;63844;50.042;19.224;2022-10-19T11:08:42;99804.98;;;11.88;60.18
75247;BME280;63844;50.042;19.224;2022-10-19T11:11:18;99808.21;;;11.84;59.22
75247;BME280;63844;50.042;19.224;2022-10-19T11:13:50;99805.92;;;11.81;59.14
75247;BME280;63844;50.042;19.224;2022-10-19T11:16:34;99805.88;;;11.75;58.73
75247;BME280;63844;50.042;19.224;2022-10-19T11:19:17;99803.95;;;11.72;58.49
75247;BME280;63844;50.042;19.224;2022-10-19T11:27:17;99791.69;;;11.75;59.57
75247;BME280;63844;50.042;19.224;2022-10-19T11:30:00;99791.16;;;11.81;60.23
75247;BME280;63844;50.042;19.224;2022-10-19T11:35:51;99792.12;;;11.86;61.46
75247;BME280;63844;50.042;19.224;2022-10-19T11:41:28;99790.45;;;11.84;62.50
75247;BME280;63844;50.042;19.224;2022-10-19T11:44:16;99791.02;;;11.90;62.50
75247;BME280;63844;50.042;19.224;2022-10-19T11:47:07;99787.87;;;11.86;62.96
75247;BME280;63844;50.042;19.224;2022-10-19T11:50:08;99790.77;;;11.85;63.10
75247;BME280;63844;50.042;19.224;2022-10-19T11:52:58;99784.70;;;11.86;63.21
75247;BME280;63844;50.042;19.224;2022-10-19T11:55:53;99782.40;;;11.86;63.91
75247;BME280;63844;50.042;19.224;2022-10-19T11:58:36;99784.17;;;11.79;63.89
75247;BME280;63844;50.042;19.224;2022-10-19T12:01:44;99782.83;;;11.75;64.63
75247;BME280;63844;50.042;19.224;2022-10-19T12:04:22;99786.09;;;11.71;64.59
75247;BME280;63844;50.042;19.224;2022-10-19T12:07:22;99782.94;;;11.70;64.88
75247;BME280;63844;50.042;19.224;2022-10-19T12:10:02;99779.29;;;11.69;64.60
75247;BME280;63844;50.042;19.224;2022-10-19T12:12:43;99769.27;;;11.67;64.96
75247;BME280;63844;50.042;19.224;2022-10-19T12:17:40;99756.48;;;11.71;64.90
75247;BME280;63844;50.042;19.224;2022-10-19T12:20:16;99758.07;;;11.77;64.82
75247;BME280;63844;50.042;19.224;2022-10-19T12:22:45;99754.18;;;11.77;64.87
75247;BME280;63844;50.042;19.224;2022-10-19T12:25:12;99749.45;;;11.85;65.04
75247;BME280;63844;50.042;19.224;2022-10-19T12:27:40;99748.11;;;11.80;65.71
75247;BME280;63844;50.042;19.224;2022-10-19T12:30:13;99747.48;;;11.85;65.67
75247;BME280;63844;50.042;19.224;2022-10-19T12:32:51;99746.29;;;11.84;65.33
75247;BME280;63844;50.042;19.224;2022-10-19T12:35:30;99748.94;;;11.85;65.59
75247;BME280;63844;50.042;19.224;2022-10-19T12:38:06;99750.15;;;11.79;65.58
75247;BME280;63844;50.042;19.224;2022-10-19T12:40:47;99754.18;;;11.80;65.33
75247;BME280;63844;50.042;19.224;2022-10-19T12:46:34;99745.96;;;11.74;64.80
75247;BME280;63844;50.042;19.224;2022-10-19T12:51:53;99747.71;;;11.72;65.32
75247;BME280;63844;50.042;19.224;2022-10-19T12:54:22;99743.21;;;11.76;65.35
75247;BME280;63844;50.042;19.224;2022-10-19T12:56:51;99746.36;;;11.80;65.62
75247;BME280;63844;50.042;19.224;2022-10-19T12:59:33;99744.86;;;11.84;65.65
75247;BME280;63844;50.042;19.224;2022-10-19T13:02:03;99747.30;;;11.88;65.68
75247;BME280;63844;50.042;19.224;2022-10-19T13:04:32;99750.83;;;11.89;65.16
75247;BME280;63844;50.042;19.224;2022-10-19T13:07:02;99753.66;;;11.86;65.01
75247;BME280;63844;50.042;19.224;2022-10-19T13:09:34;99757.23;;;11.85;64.90
75247;BME280;63844;50.042;19.224;2022-10-19T13:14:44;99763.23;;;11.83;65.12
75247;BME280;63844;50.042;19.224;2022-10-19T13:25:19;99765.42;;;11.67;66.15
75247;BME280;63844;50.042;19.224;2022-10-19T13:27:48;99765.46;;;11.69;66.07
75247;BME280;63844;50.042;19.224;2022-10-19T13:43:51;99768.69;;;11.53;66.07
75247;BME280;63844;50.042;19.224;2022-10-19T13:47:04;99772.81;;;11.52;66.13
75247;BME280;63844;50.042;19.224;2022-10-19T13:58:25;99770.23;;;11.51;66.35
75247;BME280;63844;50.042;19.224;2022-10-19T14:01:15;99762.96;;;11.51;66.79
75247;BME280;63844;50.042;19.224;2022-10-19T14:03:57;99764.73;;;11.51;66.66
75247;BME280;63844;50.042;19.224;2022-10-19T14:06:30;99761.77;;;11.50;66.70
75247;BME280;63844;50.042;19.224;2022-10-19T14:11:49;99762.35;;;11.52;66.51
75247;BME280;63844;50.042;19.224;2022-10-19T14:14:19;99757.77;;;11.52;66.34
75247;BME280;63844;50.042;19.224;2022-10-19T14:16:55;99752.52;;;11.54;66.58
75247;BME280;63844;50.042;19.224;2022-10-19T14:19:40;99748.13;;;11.53;66.48
75247;BME280;63844;50.042;19.224;2022-10-19T14:22:18;99749.89;;;11.50;66.59
75247;BME280;63844;50.042;19.224;2022-10-19T14:24:45;99752.44;;;11.45;66.82
75247;BME280;63844;50.042;19.224;2022-10-19T14:27:17;99755.48;;;11.45;66.79
75247;BME280;63844;50.042;19.224;2022-10-19T14:29:46;99757.90;;;11.43;66.81
75247;BME280;63844;50.042;19.224;2022-10-19T14:32:13;99755.17;;;11.41;67.39
75247;BME280;63844;50.042;19.224;2022-10-19T14:34:44;99758.99;;;11.42;67.48
75247;BME280;63844;50.042;19.224;2022-10-19T14:37:23;99762.90;;;11.39;67.34
75247;BME280;63844;50.042;19.224;2022-10-19T14:42:48;99761.02;;;11.38;68.00
75247;BME280;63844;50.042;19.224;2022-10-19T14:45:21;99756.80;;;11.38;67.82
75247;BME280;63844;50.042;19.224;2022-10-19T14:48:03;99757.30;;;11.38;67.94
75247;BME280;63844;50.042;19.224;2022-10-19T14:55:47;99757.23;;;11.33;68.27